createdAt,value
2018-08-03T00:00:07.498Z,67.69
2018-08-03T00:02:35.348Z,67.40
2018-08-03T00:05:03.243Z,68.33
2018-08-03T00:07:31.098Z,67.86
2018-08-03T00:09:58.930Z,68.06
2018-08-03T00:12:26.822Z,67.88
2018-08-03T00:14:54.652Z,67.64
2018-08-03T00:17:22.509Z,68.26
2018-08-03T00:19:50.329Z,68.45
2018-08-03T00:22:18.201Z,68.17
2018-08-03T00:24:46.122Z,67.94
2018-08-03T00:27:13.954Z,68.00
2018-08-03T00:29:41.931Z,68.09
2018-08-03T00:32:09.794Z,68.12
2018-08-03T00:34:37.682Z,68.98
2018-08-03T00:37:05.655Z,68.79
2018-08-03T00:39:33.513Z,68.49
2018-08-03T00:42:01.367Z,69.10
2018-08-03T00:44:29.234Z,68.55
2018-08-03T00:46:57.092Z,68.29
2018-08-03T00:49:24.954Z,67.92
2018-08-03T00:51:52.828Z,67.15
2018-08-03T00:54:20.654Z,67.20
2018-08-03T00:56:48.535Z,67.12
2018-08-03T00:59:16.470Z,67.50
2018-08-03T01:01:44.289Z,67.72
2018-08-03T01:04:12.139Z,66.94
2018-08-03T01:06:40.025Z,67.63
2018-08-03T01:09:09.859Z,67.89
2018-08-03T01:11:37.759Z,67.59
2018-08-03T01:14:06.082Z,66.79
2018-08-03T01:16:38.388Z,67.01
2018-08-03T01:19:06.254Z,65.83
2018-08-03T01:21:34.182Z,65.45
2018-08-03T01:24:02.256Z,65.96
2018-08-03T01:26:30.177Z,65.66
2018-08-03T01:28:58.070Z,66.40
2018-08-03T01:31:25.916Z,65.86
2018-08-03T01:33:53.843Z,66.22
2018-08-03T01:36:21.689Z,65.81
2018-08-03T01:38:49.509Z,66.13
2018-08-03T01:41:17.367Z,66.52
2018-08-03T01:43:45.217Z,67.34
2018-08-03T01:46:13.039Z,67.48
2018-08-03T01:48:40.909Z,68.72
2018-08-03T01:51:08.768Z,69.55
2018-08-03T01:53:36.635Z,70.70
2018-08-03T01:56:04.610Z,70.65
2018-08-03T01:58:32.490Z,68.73
2018-08-03T02:01:00.453Z,67.86
2018-08-03T02:03:28.326Z,67.62
2018-08-03T02:05:56.418Z,67.30
2018-08-03T02:08:24.313Z,67.95
2018-08-03T02:10:52.274Z,69.27
2018-08-03T02:13:20.142Z,68.16
2018-08-03T02:15:48.002Z,69.79
2018-08-03T02:18:15.869Z,69.74
2018-08-03T02:20:43.700Z,69.72
2018-08-03T02:23:11.578Z,70.48
2018-08-03T02:25:39.426Z,69.79
2018-08-03T02:28:07.327Z,70.18
2018-08-03T02:30:35.200Z,69.05
2018-08-03T02:33:03.075Z,69.09
2018-08-03T02:35:31.036Z,68.96
2018-08-03T02:37:58.874Z,68.81
2018-08-03T02:40:26.778Z,68.68
2018-08-03T02:42:54.625Z,68.67
2018-08-03T02:45:22.489Z,69.00
2018-08-03T02:47:50.337Z,68.78
2018-08-03T02:50:18.191Z,69.17
2018-08-03T02:52:46.054Z,70.67
2018-08-03T02:55:13.954Z,69.36
2018-08-03T02:57:41.838Z,69.14
2018-08-03T03:00:09.684Z,68.82
2018-08-03T03:02:37.537Z,68.91
2018-08-03T03:05:05.494Z,69.41
2018-08-03T03:07:33.375Z,69.89
2018-08-03T03:10:01.199Z,70.03
2018-08-03T03:12:29.299Z,69.87
2018-08-03T03:14:57.155Z,71.09
2018-08-03T03:17:25.039Z,71.82
2018-08-03T03:19:52.918Z,72.04
2018-08-03T03:22:20.775Z,70.74
2018-08-03T03:24:48.602Z,70.24
2018-08-03T03:27:16.445Z,69.76
2018-08-03T03:29:44.289Z,66.40
2018-08-03T03:32:12.203Z,66.28
2018-08-03T03:34:40.051Z,66.30
2018-08-03T03:37:07.903Z,66.45
2018-08-03T03:39:35.761Z,64.05
2018-08-03T03:42:03.635Z,60.46
2018-08-03T03:44:31.453Z,57.12
2018-08-03T03:46:59.349Z,54.88
2018-08-03T03:49:27.190Z,52.86
2018-08-03T03:51:55.056Z,49.22
2018-08-03T03:54:22.908Z,47.40
2018-08-03T03:56:50.787Z,44.41
2018-08-03T03:59:18.704Z,42.70
2018-08-03T04:01:46.494Z,41.15
2018-08-03T04:04:14.370Z,39.18
2018-08-03T04:06:42.254Z,37.71
2018-08-03T04:09:11.758Z,36.96
2018-08-03T04:11:39.822Z,36.40
2018-08-03T04:14:07.895Z,35.01
2018-08-03T04:16:36.271Z,36.01
2018-08-03T04:19:04.098Z,34.58
2018-08-03T04:21:31.949Z,32.97
2018-08-03T04:23:59.815Z,32.37
2018-08-03T04:26:27.687Z,32.31
2018-08-03T04:28:55.556Z,33.11
2018-08-03T04:31:23.377Z,32.79
2018-08-03T04:33:51.203Z,30.00
2018-08-03T04:36:19.066Z,27.57
2018-08-03T04:38:46.906Z,25.51
2018-08-03T04:41:14.779Z,24.20
2018-08-03T04:43:42.597Z,27.90
2018-08-03T04:46:10.450Z,31.34
2018-08-03T04:48:38.323Z,31.47
2018-08-03T04:51:06.192Z,29.75
2018-08-03T04:53:34.010Z,27.31
2018-08-03T04:56:01.889Z,28.17
2018-08-03T04:58:29.801Z,29.29
2018-08-03T05:00:57.645Z,29.71
2018-08-03T05:03:25.505Z,31.04
2018-08-03T05:05:53.441Z,31.65
2018-08-03T05:08:21.674Z,32.33
2018-08-03T05:10:49.508Z,33.14
2018-08-03T05:13:17.318Z,34.55
2018-08-03T05:15:45.157Z,37.27
2018-08-03T05:18:12.967Z,35.11
2018-08-03T05:20:40.792Z,35.28
2018-08-03T05:23:08.622Z,35.23
2018-08-03T05:25:36.549Z,33.33
2018-08-03T05:28:04.459Z,32.84
2018-08-03T05:30:32.336Z,34.73
2018-08-03T05:33:00.311Z,33.10
2018-08-03T05:35:28.189Z,33.85
2018-08-03T05:37:56.062Z,36.98
2018-08-03T05:40:23.884Z,33.91
2018-08-03T05:42:51.738Z,34.90
2018-08-03T05:45:19.660Z,34.58
2018-08-03T05:47:47.520Z,33.32
2018-08-03T05:50:15.459Z,35.50
2018-08-03T05:52:43.287Z,33.23
2018-08-03T05:55:12.013Z,36.21
2018-08-03T05:57:39.869Z,41.69
2018-08-03T06:00:07.792Z,42.50
2018-08-03T06:02:36.268Z,41.32
2018-08-03T06:05:05.218Z,36.17
2018-08-03T06:07:33.839Z,32.45
2018-08-03T06:10:01.693Z,33.22
2018-08-03T06:12:29.549Z,36.17
2018-08-03T06:14:57.457Z,35.70
2018-08-03T06:17:25.302Z,33.87
2018-08-03T06:19:53.133Z,34.47
2018-08-03T06:22:21.013Z,35.21
2018-08-03T06:24:48.913Z,34.97
2018-08-03T06:27:16.769Z,35.91
2018-08-03T06:29:44.683Z,35.23
2018-08-03T06:32:12.538Z,35.14
2018-08-03T06:34:40.437Z,36.97
2018-08-03T06:37:08.536Z,39.02
2018-08-03T06:39:36.413Z,40.89
2018-08-03T06:42:04.303Z,37.11
2018-08-03T06:44:32.175Z,35.44
2018-08-03T06:47:00.019Z,35.23
2018-08-03T06:49:27.854Z,40.29
2018-08-03T06:51:55.739Z,37.83
2018-08-03T06:54:23.558Z,35.94
2018-08-03T06:56:51.368Z,41.63
2018-08-03T06:59:19.284Z,36.98
2018-08-03T07:01:47.185Z,37.52
2018-08-03T07:04:15.075Z,39.33
2018-08-03T07:06:42.899Z,39.23
2018-08-03T07:09:11.939Z,36.54
2018-08-03T07:11:39.834Z,35.57
2018-08-03T07:14:07.792Z,34.00
2018-08-03T07:16:35.749Z,35.69
2018-08-03T07:19:03.728Z,36.77
2018-08-03T07:21:31.566Z,37.88
2018-08-03T07:23:59.429Z,36.95
2018-08-03T07:26:27.269Z,33.93
2018-08-03T07:28:55.106Z,35.20
2018-08-03T07:31:23.034Z,35.91
2018-08-03T07:33:50.860Z,35.32
2018-08-03T07:36:18.814Z,34.82
2018-08-03T07:38:46.936Z,35.74
2018-08-03T07:41:14.766Z,37.17
2018-08-03T07:43:42.611Z,36.41
2018-08-03T07:46:10.525Z,35.99
2018-08-03T07:48:38.389Z,34.01
2018-08-03T07:51:06.229Z,34.60
2018-08-03T07:53:34.092Z,35.19
2018-08-03T07:56:01.941Z,38.19
2018-08-03T07:58:29.764Z,40.25
2018-08-03T08:00:57.873Z,37.63
2018-08-03T08:03:25.710Z,36.68
2018-08-03T08:05:53.590Z,37.58
2018-08-03T08:08:21.426Z,39.68
2018-08-03T08:10:49.370Z,38.02
2018-08-03T08:13:17.241Z,36.66
2018-08-03T08:15:45.137Z,40.45
2018-08-03T08:18:12.965Z,39.05
2018-08-03T08:20:40.791Z,37.32
2018-08-03T08:23:08.613Z,39.29
2018-08-03T08:25:36.484Z,39.35
2018-08-03T08:28:04.338Z,38.51
2018-08-03T08:30:32.273Z,38.41
2018-08-03T08:33:00.155Z,38.30
2018-08-03T08:35:27.982Z,38.33
2018-08-03T08:37:55.872Z,40.58
2018-08-03T08:40:23.781Z,41.46
2018-08-03T08:42:51.605Z,41.38
2018-08-03T08:45:19.490Z,39.39
2018-08-03T08:47:47.336Z,39.19
2018-08-03T08:50:15.264Z,40.49
2018-08-03T08:52:43.163Z,39.94
2018-08-03T08:55:11.005Z,40.87
2018-08-03T08:57:38.821Z,40.38
2018-08-03T09:00:06.733Z,40.51
2018-08-03T09:02:35.603Z,39.11
2018-08-03T09:05:03.557Z,37.91
2018-08-03T09:07:31.519Z,37.15
2018-08-03T09:09:59.378Z,39.11
2018-08-03T09:12:27.221Z,42.45
2018-08-03T09:14:55.600Z,41.49
2018-08-03T09:17:23.432Z,41.95
2018-08-03T09:19:51.583Z,39.85
2018-08-03T09:22:19.599Z,38.82
2018-08-03T09:24:47.472Z,39.38
2018-08-03T09:27:15.345Z,40.38
2018-08-03T09:29:43.181Z,39.30
2018-08-03T09:32:11.071Z,37.21
2018-08-03T09:34:38.917Z,37.74
2018-08-03T09:37:06.802Z,36.49
2018-08-03T09:39:34.679Z,35.91
2018-08-03T09:42:02.545Z,37.91
2018-08-03T09:44:30.445Z,37.80
2018-08-03T09:46:58.262Z,38.58
2018-08-03T09:49:26.089Z,39.54
2018-08-03T09:51:53.950Z,41.48
2018-08-03T09:54:21.821Z,41.78
2018-08-03T09:56:49.697Z,42.48
2018-08-03T09:59:17.541Z,39.68
2018-08-03T10:01:45.434Z,41.35
2018-08-03T10:04:13.326Z,39.95
2018-08-03T10:06:41.170Z,38.47
2018-08-03T10:09:09.141Z,42.02
2018-08-03T10:11:36.996Z,40.83
2018-08-03T10:14:04.874Z,39.10
2018-08-03T10:16:32.782Z,38.47
2018-08-03T10:19:00.636Z,39.21
2018-08-03T10:21:28.487Z,44.28
2018-08-03T10:23:56.369Z,44.51
2018-08-03T10:26:24.242Z,39.97
2018-08-03T10:28:52.416Z,38.46
2018-08-03T10:31:20.323Z,36.85
2018-08-03T10:33:48.171Z,35.95
2018-08-03T10:36:16.001Z,36.12
2018-08-03T10:38:43.862Z,33.84
2018-08-03T10:41:11.730Z,35.64
2018-08-03T10:43:39.606Z,36.42
2018-08-03T10:46:07.499Z,37.65
2018-08-03T10:48:35.401Z,36.89
2018-08-03T10:51:03.320Z,37.00
2018-08-03T10:53:31.498Z,39.19
2018-08-03T10:55:59.408Z,37.17
2018-08-03T10:58:27.593Z,37.96
2018-08-03T11:00:55.458Z,38.60
2018-08-03T11:03:23.389Z,40.69
2018-08-03T11:05:51.237Z,38.85
2018-08-03T11:08:19.097Z,38.78
2018-08-03T11:10:47.082Z,38.32
2018-08-03T11:13:15.013Z,37.38
2018-08-03T11:15:42.945Z,37.82
2018-08-03T11:18:11.349Z,35.42
2018-08-03T11:20:40.103Z,37.73
2018-08-03T11:23:07.964Z,37.84
2018-08-03T11:25:35.820Z,37.42
2018-08-03T11:28:03.801Z,36.17
2018-08-03T11:30:31.672Z,36.11
2018-08-03T11:32:59.541Z,35.54
2018-08-03T11:35:27.431Z,35.95
2018-08-03T11:37:55.261Z,34.07
2018-08-03T11:40:23.110Z,33.50
2018-08-03T11:42:50.969Z,33.72
2018-08-03T11:45:18.902Z,33.74
2018-08-03T11:47:46.737Z,34.95
2018-08-03T11:50:14.586Z,36.73
2018-08-03T11:52:42.480Z,36.15
2018-08-03T11:55:10.344Z,34.53
2018-08-03T11:57:38.215Z,33.46
2018-08-03T12:00:06.323Z,37.12
2018-08-03T12:02:34.269Z,36.18
2018-08-03T12:05:02.161Z,35.23
2018-08-03T12:07:30.033Z,33.84
2018-08-03T12:09:57.881Z,31.58
2018-08-03T12:12:25.911Z,29.47
2018-08-03T12:14:53.718Z,31.88
2018-08-03T12:17:21.598Z,33.95
2018-08-03T12:19:49.742Z,31.49
2018-08-03T12:22:17.614Z,31.95
2018-08-03T12:24:45.454Z,32.95
2018-08-03T12:27:13.319Z,35.68
2018-08-03T12:29:41.231Z,36.35
2018-08-03T12:32:09.078Z,36.65
2018-08-03T12:34:36.977Z,36.39
2018-08-03T12:37:04.951Z,35.02
2018-08-03T12:39:32.887Z,36.04
2018-08-03T12:42:00.805Z,33.97
2018-08-03T12:44:28.657Z,32.95
2018-08-03T12:46:56.506Z,32.66
2018-08-03T12:49:24.341Z,30.53
2018-08-03T12:51:52.231Z,31.86
2018-08-03T12:54:20.110Z,32.73
2018-08-03T12:56:48.015Z,33.11
2018-08-03T12:59:15.832Z,34.68
2018-08-03T13:01:43.665Z,34.99
2018-08-03T13:04:11.492Z,35.96
2018-08-03T13:06:39.358Z,31.87
2018-08-03T13:09:07.604Z,29.87
2018-08-03T13:11:35.516Z,30.65
2018-08-03T13:14:03.445Z,32.10
2018-08-03T13:16:31.294Z,32.20
2018-08-03T13:18:59.253Z,32.08
2018-08-03T13:21:34.302Z,35.70
2018-08-03T13:24:02.734Z,34.00
2018-08-03T13:26:30.695Z,34.29
2018-08-03T13:28:59.036Z,33.78
2018-08-03T13:31:27.853Z,34.37
2018-08-03T13:33:55.776Z,34.40
2018-08-03T13:36:24.835Z,33.83
2018-08-03T13:38:53.053Z,31.17
2018-08-03T13:41:20.962Z,33.17
2018-08-03T13:43:48.870Z,31.89
2018-08-03T13:46:17.170Z,31.33
2018-08-03T13:48:46.193Z,31.93
2018-08-03T13:51:15.061Z,31.27
2018-08-03T13:53:43.635Z,31.61
2018-08-03T13:56:12.282Z,32.59
2018-08-03T13:58:40.997Z,33.70
2018-08-03T14:01:19.990Z,34.77
2018-08-03T14:03:47.901Z,35.23
2018-08-03T14:06:15.765Z,36.10
2018-08-03T14:08:45.508Z,35.01
2018-08-03T14:11:14.188Z,34.55
2018-08-03T14:13:42.149Z,31.83
2018-08-03T14:16:10.300Z,32.35
2018-08-03T14:18:38.470Z,32.14
2018-08-03T14:21:06.447Z,32.15
2018-08-03T14:23:34.343Z,32.80
2018-08-03T14:26:02.320Z,33.24
2018-08-03T14:28:30.206Z,34.50
2018-08-03T14:30:58.119Z,35.63
2018-08-03T14:33:26.104Z,36.79
2018-08-03T14:35:54.280Z,36.55
2018-08-03T14:38:22.179Z,36.90
2018-08-03T14:40:50.094Z,36.38
2018-08-03T14:43:17.990Z,37.16
2018-08-03T14:45:45.863Z,37.86
2018-08-03T14:48:13.843Z,36.99
2018-08-03T14:50:41.725Z,36.69
2018-08-03T14:53:09.731Z,36.28
2018-08-03T14:55:37.598Z,36.50
2018-08-03T14:58:05.968Z,37.55
2018-08-03T15:00:33.790Z,38.46
2018-08-03T15:03:01.678Z,37.00
2018-08-03T15:05:30.615Z,36.21
2018-08-03T15:07:58.572Z,36.29
2018-08-03T15:10:26.483Z,35.66
2018-08-03T15:12:54.338Z,35.70
2018-08-03T15:15:22.217Z,36.41
2018-08-03T15:17:50.107Z,36.83
2018-08-03T15:20:17.986Z,36.12
2018-08-03T15:22:45.858Z,35.64
2018-08-03T15:25:13.684Z,35.41
2018-08-03T15:27:41.539Z,36.31
2018-08-03T15:30:10.729Z,35.49
2018-08-03T15:32:38.596Z,36.56
2018-08-03T15:35:06.825Z,35.50
2018-08-03T15:37:34.801Z,35.35
2018-08-03T15:40:02.835Z,34.65
2018-08-03T15:42:30.781Z,34.00
2018-08-03T15:44:58.606Z,35.15
2018-08-03T15:47:26.829Z,34.53
2018-08-03T15:49:54.849Z,35.63
2018-08-03T15:52:22.748Z,35.60
2018-08-03T15:54:51.056Z,35.92
2018-08-03T15:57:18.936Z,35.20
2018-08-03T15:59:46.789Z,34.18
2018-08-03T16:02:14.777Z,35.57
2018-08-03T16:04:42.610Z,35.29
2018-08-03T16:07:10.463Z,35.76
2018-08-03T16:09:38.310Z,36.23
2018-08-03T16:12:06.199Z,36.32
2018-08-03T16:14:34.110Z,36.38
2018-08-03T16:17:02.037Z,36.85
2018-08-03T16:19:29.874Z,37.34
2018-08-03T16:21:57.789Z,37.54
2018-08-03T16:24:25.702Z,37.86
2018-08-03T16:26:53.659Z,38.05
2018-08-03T16:29:21.518Z,39.25
2018-08-03T16:31:49.642Z,38.69
2018-08-03T16:34:17.493Z,39.86
2018-08-03T16:36:45.349Z,39.68
2018-08-03T16:39:13.217Z,40.60
2018-08-03T16:41:41.081Z,40.43
2018-08-03T16:44:09.051Z,40.99
2018-08-03T16:46:36.968Z,40.54
2018-08-03T16:49:04.925Z,41.08
2018-08-03T16:51:32.810Z,40.59
2018-08-03T16:54:00.663Z,40.03
2018-08-03T16:56:28.518Z,42.27
2018-08-03T16:58:56.379Z,41.08
2018-08-03T17:01:24.510Z,41.72
2018-08-03T17:03:52.434Z,42.37
2018-08-03T17:06:20.305Z,42.34
2018-08-03T17:08:48.182Z,42.57
2018-08-03T17:11:16.210Z,42.61
2018-08-03T17:13:44.084Z,42.41
2018-08-03T17:16:11.946Z,43.36
2018-08-03T17:18:39.918Z,42.76
2018-08-03T17:21:08.163Z,43.68
2018-08-03T17:23:36.061Z,42.86
2018-08-03T17:26:04.102Z,42.53
2018-08-03T17:28:32.030Z,42.50
2018-08-03T17:31:00.009Z,43.06
2018-08-03T17:33:27.912Z,44.00
2018-08-03T17:35:56.169Z,43.50
2018-08-03T17:38:24.054Z,43.72
2018-08-03T17:40:52.037Z,43.57
2018-08-03T17:43:19.955Z,44.35
2018-08-03T17:45:47.866Z,46.68
2018-08-03T17:48:15.897Z,46.94
2018-08-03T17:50:43.841Z,48.19
2018-08-03T17:53:11.886Z,49.92
2018-08-03T17:55:39.762Z,49.47
2018-08-03T17:58:07.618Z,51.00
2018-08-03T18:00:35.490Z,51.06
2018-08-03T18:03:05.286Z,51.41
2018-08-03T18:05:33.315Z,51.07
2018-08-03T18:08:01.194Z,50.21
2018-08-03T18:10:29.253Z,51.07
2018-08-03T18:12:57.385Z,51.54
2018-08-03T18:15:26.642Z,50.43
2018-08-03T18:17:54.909Z,50.49
2018-08-03T18:20:22.877Z,51.21
2018-08-03T18:22:50.777Z,51.31
2018-08-03T18:25:19.026Z,52.50
2018-08-03T18:27:46.911Z,53.30
2018-08-03T18:30:14.795Z,53.40
2018-08-03T18:32:42.829Z,54.17
2018-08-03T18:35:10.718Z,54.44
2018-08-03T18:37:38.590Z,55.07
2018-08-03T18:40:08.442Z,54.60
2018-08-03T18:42:36.338Z,53.68
2018-08-03T18:45:05.789Z,55.38
2018-08-03T18:47:33.674Z,55.07
2018-08-03T18:50:01.581Z,54.46
2018-08-03T18:52:29.589Z,55.04
2018-08-03T18:54:58.010Z,54.86
2018-08-03T18:57:26.171Z,54.87
2018-08-03T18:59:54.039Z,54.73
2018-08-03T19:02:21.939Z,54.93
2018-08-03T19:04:49.892Z,55.63
2018-08-03T19:07:18.171Z,54.96
2018-08-03T19:09:46.147Z,54.99
2018-08-03T19:12:14.057Z,55.14
2018-08-03T19:14:42.014Z,55.66
2018-08-03T19:17:09.920Z,55.85
2018-08-03T19:19:38.711Z,55.96
2018-08-03T19:22:06.617Z,56.90
2018-08-03T19:24:34.514Z,56.23
2018-08-03T19:27:02.424Z,56.40
2018-08-03T19:29:30.325Z,55.86
2018-08-03T19:31:59.302Z,57.10
2018-08-03T19:34:27.212Z,56.39
2018-08-03T19:36:55.140Z,57.10
2018-08-03T19:39:23.010Z,57.15
2018-08-03T19:41:50.870Z,57.22
2018-08-03T19:44:18.774Z,56.93
2018-08-03T19:46:46.626Z,56.46
2018-08-03T19:49:14.514Z,56.47
2018-08-03T19:51:42.369Z,56.89
2018-08-03T19:54:10.218Z,56.73
2018-08-03T19:56:38.065Z,56.76
2018-08-03T19:59:06.202Z,57.17
2018-08-03T20:01:34.026Z,56.17
2018-08-03T20:04:01.973Z,56.69
2018-08-03T20:06:29.829Z,57.77
2018-08-03T20:08:57.689Z,57.74
2018-08-03T20:11:25.573Z,57.17
2018-08-03T20:13:53.532Z,57.71
2018-08-03T20:16:21.453Z,57.47
2018-08-03T20:18:49.345Z,57.52
2018-08-03T20:21:17.233Z,57.61
2018-08-03T20:23:45.206Z,57.69
2018-08-03T20:26:13.057Z,57.57
2018-08-03T20:28:40.939Z,57.52
2018-08-03T20:31:08.787Z,57.76
2018-08-03T20:33:36.669Z,57.64
2018-08-03T20:36:04.545Z,58.88
2018-08-03T20:38:32.620Z,58.27
2018-08-03T20:41:00.525Z,58.15
2018-08-03T20:43:28.383Z,58.56
2018-08-03T20:45:56.272Z,59.40
2018-08-03T20:48:24.158Z,58.77
2018-08-03T20:50:52.401Z,59.23
2018-08-03T20:53:20.283Z,59.23
2018-08-03T20:55:48.127Z,60.52
2018-08-03T20:58:16.035Z,60.24
2018-08-03T21:00:43.865Z,60.65
2018-08-03T21:03:12.110Z,59.81
2018-08-03T21:05:39.978Z,59.37
2018-08-03T21:08:07.829Z,60.04
2018-08-03T21:10:35.742Z,59.33
2018-08-03T21:13:03.678Z,60.68
2018-08-03T21:15:31.670Z,60.68
2018-08-03T21:17:59.620Z,60.74
2018-08-03T21:20:27.819Z,61.75
2018-08-03T21:22:55.694Z,62.50
2018-08-03T21:25:23.593Z,61.43
2018-08-03T21:27:51.450Z,61.61
2018-08-03T21:30:19.386Z,61.77
2018-08-03T21:32:47.239Z,61.34
2018-08-03T21:35:15.102Z,60.80
2018-08-03T21:37:42.981Z,61.67
2018-08-03T21:40:10.865Z,60.53
2018-08-03T21:42:38.750Z,61.35
2018-08-03T21:45:06.718Z,61.19
2018-08-03T21:47:34.579Z,60.48
2018-08-03T21:50:02.824Z,61.17
2018-08-03T21:52:31.366Z,60.82
2018-08-03T21:54:59.240Z,61.23
2018-08-03T21:57:27.265Z,59.98
2018-08-03T21:59:55.208Z,60.92
2018-08-03T22:02:23.168Z,59.90
2018-08-03T22:04:51.010Z,60.02
2018-08-03T22:07:19.023Z,60.24
2018-08-03T22:09:46.945Z,60.20
2018-08-03T22:12:15.011Z,61.22
2018-08-03T22:14:43.011Z,60.93
2018-08-03T22:17:10.961Z,60.55
2018-08-03T22:19:38.865Z,59.67
2018-08-03T22:22:06.921Z,59.85
2018-08-03T22:24:34.952Z,59.50
2018-08-03T22:27:03.030Z,60.34
2018-08-03T22:29:30.873Z,60.54
2018-08-03T22:31:58.815Z,60.57
2018-08-03T22:34:26.737Z,60.72
2018-08-03T22:36:54.594Z,61.18
2018-08-03T22:39:22.453Z,60.98
2018-08-03T22:41:50.298Z,61.15
2018-08-03T22:44:18.145Z,60.91
2018-08-03T22:46:46.013Z,61.00
2018-08-03T22:49:13.869Z,61.32
2018-08-03T22:51:41.708Z,60.72
2018-08-03T22:54:09.561Z,61.22
2018-08-03T22:56:37.440Z,60.90
2018-08-03T22:59:05.505Z,62.61
2018-08-03T23:01:33.370Z,62.31
2018-08-03T23:04:01.251Z,63.00
2018-08-03T23:06:29.097Z,62.47
2018-08-03T23:08:56.971Z,62.55
2018-08-03T23:11:24.910Z,62.40
2018-08-03T23:13:52.803Z,63.34
2018-08-03T23:16:20.686Z,63.63
2018-08-03T23:18:48.512Z,63.14
2018-08-03T23:21:16.342Z,63.94
2018-08-03T23:23:44.222Z,63.75
2018-08-03T23:26:12.090Z,63.78
2018-08-03T23:28:39.929Z,63.38
2018-08-03T23:31:07.774Z,63.29
2018-08-03T23:33:35.626Z,62.99
2018-08-03T23:36:03.572Z,63.18
2018-08-03T23:38:31.461Z,63.17
2018-08-03T23:40:59.337Z,63.31
2018-08-03T23:43:27.225Z,63.39
2018-08-03T23:45:55.069Z,62.76
2018-08-03T23:48:22.957Z,63.49
2018-08-03T23:50:50.801Z,63.25
2018-08-03T23:53:18.686Z,64.19
2018-08-03T23:55:46.531Z,64.82
2018-08-03T23:58:14.408Z,64.57
